Time;durP1;ratioP1;P1;durP2;ratioP2;P2;SDS_P1;SDS_P2;PMS_P1;PMS_P2;Temp;Humidity;BMP_temperature;BMP_pressure;BME280_temperature;BME280_humidity;BME280_pressure;Samples;Min_cycle;Max_cycle;Signal;HPM_P1;HPM_P2
2022/08/27 00:01:05;;;;;;;2.28;1.00;;;17.20;99.90;;;;;;5014329;28;20187;-59
2022/08/27 00:03:31;;;;;;;0.60;0.60;;;17.20;99.90;;;;;;5012852;28;20181;-59
2022/08/27 00:05:57;;;;;;;0.93;0.93;;;17.30;99.90;;;;;;5013834;28;20806;-59
2022/08/27 00:08:22;;;;;;;0.70;0.57;;;17.30;99.90;;;;;;5013680;28;20256;-59
2022/08/27 00:10:48;;;;;;;0.77;0.65;;;17.20;99.90;;;;;;5012528;28;20208;-58
2022/08/27 00:13:15;;;;;;;0.70;0.70;;;17.10;99.90;;;;;;5013662;28;20238;-59
2022/08/27 00:15:43;;;;;;;1.15;0.82;;;17.00;99.90;;;;;;5012146;28;20187;-59
2022/08/27 00:18:08;;;;;;;0.70;0.68;;;17.00;99.90;;;;;;5012530;28;20215;-59
2022/08/27 00:20:34;;;;;;;0.77;0.70;;;16.90;99.90;;;;;;5013719;28;20638;-59
2022/08/27 00:23:00;;;;;;;0.60;0.60;;;16.90;99.90;;;;;;5013730;28;20260;-58
2022/08/27 00:25:26;;;;;;;0.70;0.65;;;16.80;99.90;;;;;;5013632;28;20248;-59
2022/08/27 00:27:52;;;;;;;1.25;0.95;;;16.70;99.90;;;;;;5013220;28;20177;-59
2022/08/27 00:30:20;;;;;;;0.75;0.75;;;16.70;99.90;;;;;;5013610;28;20244;-59
2022/08/27 00:32:46;;;;;;;0.77;0.68;;;16.60;99.90;;;;;;5012486;28;20185;-59
2022/08/27 00:35:14;;;;;;;0.90;0.80;;;16.60;99.90;;;;;;5013445;28;20315;-59
2022/08/27 00:37:42;;;;;;;1.33;0.68;;;16.60;99.90;;;;;;5012346;28;20195;-59
2022/08/27 00:40:11;;;;;;;0.80;0.57;;;16.70;99.90;;;;;;5013491;28;20180;-59
2022/08/27 00:42:37;;;;;;;0.98;0.70;;;16.70;99.90;;;;;;5013589;28;20231;-59
2022/08/27 00:45:05;;;;;;;0.90;0.75;;;16.70;99.90;;;;;;5013869;28;20598;-59
2022/08/27 00:47:42;;;;;;;1.17;1.08;;;16.70;99.90;;;;;;5013439;28;20208;-59
2022/08/27 00:50:16;;;;;;;0.95;0.70;;;16.70;99.90;;;;;;5013313;28;20207;-59
2022/08/27 00:52:56;;;;;;;1.10;0.80;;;16.60;99.90;;;;;;5013299;28;20176;-59
2022/08/27 00:55:34;;;;;;;0.70;0.70;;;16.60;99.90;;;;;;5013996;28;20173;-59
2022/08/27 00:58:11;;;;;;;0.90;0.70;;;16.60;99.90;;;;;;5013208;28;20189;-58
2022/08/27 01:00:37;;;;;;;1.30;0.90;;;16.40;99.90;;;;;;5013348;28;20211;-58
2022/08/27 01:03:04;;;;;;;0.80;0.77;;;16.40;99.90;;;;;;5013125;28;20648;-59
2022/08/27 01:05:33;;;;;;;0.68;0.68;;;16.30;99.90;;;;;;5011934;28;20618;-59
2022/08/27 01:08:04;;;;;;;0.77;0.55;;;16.30;99.90;;;;;;5013146;28;20165;-59
2022/08/27 01:10:30;;;;;;;1.70;0.70;;;16.20;99.90;;;;;;5011988;28;20737;-59
2022/08/27 01:12:56;;;;;;;1.58;0.70;;;16.10;99.90;;;;;;5013197;28;20177;-60
2022/08/27 01:15:24;;;;;;;0.68;0.60;;;16.20;99.90;;;;;;5012012;28;20180;-59
2022/08/27 01:17:51;;;;;;;0.70;0.70;;;16.20;99.90;;;;;;5011805;28;20220;-59
2022/08/27 01:20:28;;;;;;;0.70;0.70;;;16.20;99.90;;;;;;5013203;28;20204;-59
2022/08/27 01:23:12;;;;;;;1.08;0.52;;;16.20;99.90;;;;;;5013270;28;20208;-59
2022/08/27 01:25:41;;;;;;;0.75;0.68;;;16.20;99.90;;;;;;5013127;28;20172;-59
2022/08/27 01:28:09;;;;;;;0.85;0.80;;;16.20;99.90;;;;;;5012747;28;20243;-59
2022/08/27 01:30:36;;;;;;;0.63;0.63;;;16.20;99.90;;;;;;5016506;28;20674;-60
2022/08/27 01:33:13;;;;;;;0.68;0.68;;;16.10;99.90;;;;;;5015394;28;20181;-59
2022/08/27 01:35:40;;;;;;;0.90;0.90;;;16.00;99.90;;;;;;5016586;28;20529;-59
2022/08/27 01:38:06;;;;;;;0.82;0.70;;;16.00;99.90;;;;;;5016446;28;20538;-59
2022/08/27 01:40:32;;;;;;;0.77;0.77;;;16.00;99.90;;;;;;5016293;28;20180;-59
2022/08/27 01:42:58;;;;;;;0.60;0.60;;;16.00;99.90;;;;;;5016279;28;20169;-60
2022/08/27 01:45:30;;;;;;;1.00;0.80;;;16.00;99.90;;;;;;5015191;28;20192;-58
2022/08/27 01:47:58;;;;;;;1.80;0.70;;;16.00;99.90;;;;;;5016575;28;20176;-59
2022/08/27 01:50:30;;;;;;;0.80;0.80;;;15.90;99.90;;;;;;5014941;28;20196;-59
2022/08/27 01:53:00;;;;;;;0.68;0.45;;;16.00;99.90;;;;;;5015087;28;20585;-59
2022/08/27 01:55:26;;;;;;;0.73;0.73;;;16.00;99.90;;;;;;5015048;28;20195;-59
2022/08/27 01:57:53;;;;;;;1.23;0.85;;;16.00;99.90;;;;;;5016384;28;20571;-59
2022/08/27 02:00:26;;;;;;;0.88;0.60;;;15.90;99.90;;;;;;5016159;28;20211;-59
2022/08/27 02:02:52;;;;;;;0.80;0.70;;;15.90;99.90;;;;;;5016152;28;20176;-59
2022/08/27 02:05:18;;;;;;;0.65;0.65;;;15.90;99.90;;;;;;5016000;28;20177;-59
2022/08/27 02:07:45;;;;;;;0.90;0.90;;;15.90;99.90;;;;;;5015845;28;20180;-59
2022/08/27 02:10:14;;;;;;;1.10;0.90;;;15.90;99.90;;;;;;5014679;28;20209;-60
2022/08/27 02:12:40;;;;;;;0.98;0.75;;;15.80;99.90;;;;;;5016031;28;20196;-59
2022/08/27 02:15:07;;;;;;;1.05;0.95;;;15.80;99.90;;;;;;5015703;28;20645;-59
2022/08/27 02:17:33;;;;;;;1.13;0.98;;;15.80;99.90;;;;;;5015741;28;20589;-59
2022/08/27 02:19:59;;;;;;;1.25;0.73;;;15.70;99.90;;;;;;5015659;28;20180;-59
2022/08/27 02:22:26;;;;;;;1.02;0.93;;;15.60;99.90;;;;;;5015636;28;20264;-59
2022/08/27 02:24:52;;;;;;;1.35;0.95;;;15.50;99.90;;;;;;5014615;28;20177;-59
2022/08/27 02:27:18;;;;;;;0.73;0.73;;;15.50;99.90;;;;;;5014474;28;20184;-59
2022/08/27 02:29:46;;;;;;;1.02;0.93;;;15.40;99.90;;;;;;5014278;28;20193;-59
2022/08/27 02:32:13;;;;;;;0.70;0.70;;;15.40;99.90;;;;;;4998279;28;20180;-59
2022/08/27 02:34:38;;;;;;;1.00;0.90;;;15.40;99.90;;;;;;5014332;28;20169;-59
2022/08/27 02:37:06;;;;;;;1.15;0.88;;;15.50;99.90;;;;;;5015290;28;20179;-59
2022/08/27 02:39:32;;;;;;;1.00;0.90;;;15.30;99.90;;;;;;5013861;28;20164;-59
2022/08/27 02:41:58;;;;;;;1.10;0.90;;;15.20;99.90;;;;;;5014247;28;20542;-59
2022/08/27 02:44:23;;;;;;;1.13;1.02;;;15.20;99.90;;;;;;5015300;28;20173;-60
2022/08/27 02:46:49;;;;;;;1.42;1.23;;;15.20;99.90;;;;;;5015227;28;20190;-59
2022/08/27 02:49:15;;;;;;;1.48;1.00;;;15.20;99.90;;;;;;5015167;28;20203;-58
2022/08/27 02:51:40;;;;;;;0.85;0.85;;;15.10;99.90;;;;;;5015238;28;20216;-59
2022/08/27 02:54:06;;;;;;;1.02;0.93;;;15.10;99.90;;;;;;5015164;28;20223;-60
2022/08/27 02:56:32;;;;;;;1.10;1.00;;;15.20;99.90;;;;;;4997886;28;20241;-59
2022/08/27 02:58:58;;;;;;;1.02;0.93;;;15.20;99.90;;;;;;5013764;28;20192;-59
2022/08/27 03:01:24;;;;;;;0.93;0.90;;;15.20;99.90;;;;;;5014905;28;20271;-59
2022/08/27 03:03:50;;;;;;;1.17;1.02;;;15.20;99.90;;;;;;5014801;28;20181;-59
2022/08/27 03:06:16;;;;;;;0.98;0.90;;;15.20;99.90;;;;;;5013558;28;20183;-59
2022/08/27 03:08:41;;;;;;;0.80;0.73;;;15.20;99.90;;;;;;5014972;28;20187;-59
2022/08/27 03:11:07;;;;;;;1.27;1.17;;;15.30;99.90;;;;;;5014602;28;20286;-59
2022/08/27 03:13:37;;;;;;;2.67;1.10;;;15.30;99.90;;;;;;5013582;28;20176;-59
2022/08/27 03:16:04;;;;;;;0.80;0.80;;;15.40;99.90;;;;;;5014649;28;20176;-59
2022/08/27 03:18:31;;;;;;;1.08;0.88;;;15.30;99.90;;;;;;5014536;28;20179;-59
2022/08/27 03:20:59;;;;;;;1.38;1.10;;;15.30;99.90;;;;;;5014409;28;20272;-59
2022/08/27 03:23:27;;;;;;;1.30;1.20;;;15.20;99.90;;;;;;5014590;28;20256;-58
2022/08/27 03:25:57;;;;;;;0.60;0.60;;;15.20;99.90;;;;;;5013226;28;20181;-59
2022/08/27 03:28:26;;;;;;;1.20;1.00;;;15.20;99.90;;;;;;5013072;28;20196;-59
2022/08/27 03:30:57;;;;;;;2.60;1.33;;;15.10;99.90;;;;;;5014302;28;20594;-59
2022/08/27 03:33:23;;;;;;;1.08;1.02;;;15.00;99.90;;;;;;5014829;28;20176;-59
2022/08/27 03:35:49;;;;;;;2.08;1.23;;;15.00;99.90;;;;;;5014393;28;20199;-58
2022/08/27 03:38:15;;;;;;;1.55;1.20;;;14.90;99.90;;;;;;5014350;28;20172;-59
2022/08/27 03:40:42;;;;;;;1.10;1.02;;;14.90;99.90;;;;;;5013354;28;20172;-61
2022/08/27 03:43:12;;;;;;;1.85;1.15;;;14.80;99.90;;;;;;5014150;28;20180;-59
2022/08/27 03:45:38;;;;;;;1.27;1.02;;;14.80;99.90;;;;;;5013965;28;20275;-58
2022/08/27 03:48:04;;;;;;;1.08;1.00;;;14.90;99.90;;;;;;5012987;28;20259;-59
2022/08/27 03:50:31;;;;;;;1.10;0.90;;;14.90;99.90;;;;;;5013348;28;20204;-59
2022/08/27 03:52:57;;;;;;;1.30;1.20;;;14.90;99.90;;;;;;5013960;28;20180;-59
2022/08/27 03:55:23;;;;;;;1.20;1.10;;;14.90;99.90;;;;;;5014019;28;20267;-60
2022/08/27 03:57:49;;;;;;;1.23;1.13;;;14.90;99.90;;;;;;5012604;28;20662;-59
2022/08/27 04:00:15;;;;;;;0.80;0.80;;;14.90;99.90;;;;;;5013856;28;20177;-59
2022/08/27 04:02:42;;;;;;;0.82;0.82;;;14.90;99.90;;;;;;5012892;28;20184;-59
2022/08/27 04:05:10;;;;;;;1.40;1.15;;;14.80;99.90;;;;;;5013953;28;20177;-59
2022/08/27 04:07:38;;;;;;;1.40;1.10;;;14.80;99.90;;;;;;5013913;28;20227;-59
2022/08/27 04:10:06;;;;;;;0.98;0.88;;;14.80;99.90;;;;;;5012603;28;20700;-59
2022/08/27 04:12:32;;;;;;;1.40;1.30;;;14.80;99.90;;;;;;5013714;28;20581;-59
2022/08/27 04:14:57;;;;;;;1.50;1.40;;;14.90;99.90;;;;;;5013613;28;20207;-59
2022/08/27 04:17:23;;;;;;;1.80;1.20;;;15.00;99.90;;;;;;5013550;28;20180;-59
2022/08/27 04:19:51;;;;;;;1.88;0.98;;;15.00;99.90;;;;;;5013715;28;20176;-59
2022/08/27 04:22:17;;;;;;;1.42;1.10;;;15.00;99.90;;;;;;5013666;28;20533;-59
2022/08/27 04:24:43;;;;;;;1.20;1.00;;;15.00;99.90;;;;;;5013484;28;20184;-60
2022/08/27 04:27:10;;;;;;;1.25;1.15;;;15.10;99.90;;;;;;4996096;28;20542;-59
2022/08/27 04:29:36;;;;;;;1.55;1.08;;;15.20;99.90;;;;;;4996106;28;20278;-59
2022/08/27 04:32:03;;;;;;;1.90;1.45;;;15.30;99.90;;;;;;5012134;28;20577;-59
2022/08/27 04:34:29;;;;;;;1.13;1.00;;;15.30;99.90;;;;;;5012247;28;20660;-59
2022/08/27 04:36:56;;;;;;;1.20;1.10;;;15.30;99.90;;;;;;5013516;28;20186;-59
2022/08/27 04:39:22;;;;;;;1.30;1.00;;;15.30;99.90;;;;;;5013399;28;20650;-59
2022/08/27 04:41:50;;;;;;;1.23;1.13;;;15.30;99.90;;;;;;5013282;28;20181;-58
2022/08/27 04:44:15;;;;;;;1.35;1.15;;;15.30;99.90;;;;;;5013848;28;20173;-59
2022/08/27 04:46:41;;;;;;;1.23;0.98;;;15.20;99.90;;;;;;5013297;28;20173;-59
2022/08/27 04:49:10;;;;;;;1.20;1.00;;;15.20;99.90;;;;;;4995930;28;20184;-59
2022/08/27 04:51:36;;;;;;;1.13;0.93;;;15.20;99.90;;;;;;5013208;28;20210;-59
2022/08/27 04:54:04;;;;;;;1.13;1.02;;;15.20;99.90;;;;;;5013322;28;20643;-59
2022/08/27 04:56:30;;;;;;;1.20;1.10;;;15.20;99.90;;;;;;5013230;28;20208;-59
2022/08/27 04:58:56;;;;;;;0.77;0.77;;;15.10;99.90;;;;;;5013460;28;20185;-59
2022/08/27 05:01:25;;;;;;;1.00;1.00;;;15.10;99.90;;;;;;5013161;28;20215;-59
2022/08/27 05:03:51;;;;;;;1.48;1.25;;;15.10;99.90;;;;;;5017050;28;20259;-59
2022/08/27 05:06:18;;;;;;;1.40;0.93;;;15.10;99.90;;;;;;5017140;28;20180;-59
2022/08/27 05:08:43;;;;;;;1.10;0.95;;;15.10;99.90;;;;;;5017286;28;20391;-59
2022/08/27 05:11:13;;;;;;;1.35;0.95;;;15.10;99.90;;;;;;5016822;28;20211;-59
2022/08/27 05:13:40;;;;;;;1.42;1.20;;;15.10;99.90;;;;;;5015949;28;20562;-58
2022/08/27 05:16:10;;;;;;;1.00;0.90;;;15.20;99.90;;;;;;5016770;28;20523;-58
2022/08/27 05:18:37;;;;;;;1.00;1.00;;;15.20;99.90;;;;;;5016917;28;20173;-58
2022/08/27 05:21:04;;;;;;;0.82;0.70;;;15.20;99.90;;;;;;5016851;28;20177;-58
2022/08/27 05:23:29;;;;;;;1.20;0.98;;;15.20;99.90;;;;;;5016632;28;20181;-58
2022/08/27 05:25:56;;;;;;;1.65;0.88;;;15.10;99.90;;;;;;5016476;28;20237;-58
2022/08/27 05:28:23;;;;;;;1.83;1.20;;;15.20;99.90;;;;;;5016423;28;20196;-59
2022/08/27 05:30:52;;;;;;;1.65;1.27;;;15.20;99.90;;;;;;5016424;28;20557;-59
2022/08/27 05:33:24;;;;;;;1.40;1.25;;;15.20;99.90;;;;;;5016488;28;20642;-59
2022/08/27 05:35:53;;;;;;;1.38;0.90;;;15.30;99.90;;;;;;5016391;28;20686;-60
2022/08/27 05:38:19;;;;;;;1.35;1.17;;;15.30;99.90;;;;;;5016312;28;20197;-60
2022/08/27 05:40:46;;;;;;;1.20;1.05;;;15.40;99.90;;;;;;5016792;28;20211;-60
2022/08/27 05:43:17;;;;;;;0.98;0.88;;;15.40;99.90;;;;;;5016465;28;20172;-60
2022/08/27 05:45:47;;;;;;;1.70;1.20;;;15.40;99.90;;;;;;5016249;28;20173;-60
2022/08/27 05:48:15;;;;;;;1.17;1.10;;;15.40;99.90;;;;;;5015012;28;20638;-60
2022/08/27 05:50:42;;;;;;;1.13;1.00;;;15.50;99.90;;;;;;5015944;28;20207;-60
2022/08/27 05:53:10;;;;;;;1.70;1.10;;;15.60;99.90;;;;;;5016575;28;20177;-60
2022/08/27 05:55:37;;;;;;;1.33;0.90;;;15.60;99.90;;;;;;5016171;28;20173;-59
2022/08/27 05:58:04;;;;;;;1.10;1.00;;;15.70;99.90;;;;;;5016114;28;20522;-60
2022/08/27 06:03:14;;;;;;;1.33;1.00;;;15.90;99.90;;;;;;5016177;28;20211;-59
2022/08/27 06:05:39;;;;;;;1.33;1.00;;;16.00;99.90;;;;;;5015831;28;20289;-59
2022/08/27 06:08:05;;;;;;;1.30;1.13;;;16.20;99.90;;;;;;5015089;28;20181;-60
2022/08/27 06:10:31;;;;;;;2.47;1.00;;;16.40;99.90;;;;;;5015689;28;20715;-59
2022/08/27 06:12:57;;;;;;;1.55;1.08;;;16.40;99.90;;;;;;5015577;28;20519;-59
2022/08/27 06:15:22;;;;;;;0.80;0.80;;;16.50;99.90;;;;;;5015231;28;20184;-60
2022/08/27 06:17:48;;;;;;;3.00;1.08;;;16.70;99.90;;;;;;5014401;28;20176;-60
2022/08/27 06:20:14;;;;;;;1.05;0.93;;;16.80;99.90;;;;;;5015757;28;20196;-60
2022/08/27 06:22:40;;;;;;;1.70;1.20;;;16.90;99.90;;;;;;5015577;28;20243;-59
2022/08/27 06:25:06;;;;;;;1.73;1.20;;;17.00;99.90;;;;;;5021449;28;20201;-60
2022/08/27 06:27:32;;;;;;;1.27;0.95;;;17.10;99.90;;;;;;4997459;28;20188;-60
2022/08/27 06:29:57;;;;;;;1.52;1.10;;;17.20;99.90;;;;;;5015032;28;20243;-59
2022/08/27 06:32:24;;;;;;;1.83;0.98;;;17.30;99.90;;;;;;5015155;28;20582;-60
2022/08/27 06:34:50;;;;;;;1.75;1.27;;;17.40;99.90;;;;;;5015286;28;20700;-58
2022/08/27 06:37:16;;;;;;;1.23;0.90;;;17.60;99.90;;;;;;5014996;28;20180;-59
2022/08/27 06:39:42;;;;;;;1.38;1.00;;;17.70;99.90;;;;;;4997691;28;20646;-60
2022/08/27 06:42:11;;;;;;;0.93;0.85;;;17.70;99.90;;;;;;5013864;28;20181;-60
2022/08/27 06:44:36;;;;;;;1.50;0.90;;;17.90;99.90;;;;;;5015021;28;20669;-59
2022/08/27 06:47:02;;;;;;;1.30;1.00;;;18.00;99.90;;;;;;4997317;28;20264;-59
2022/08/27 06:49:28;;;;;;;1.00;0.90;;;18.00;99.90;;;;;;5015095;28;20267;-60
2022/08/27 06:51:54;;;;;;;2.15;0.88;;;18.10;99.90;;;;;;5013706;28;20300;-59
2022/08/27 06:54:20;;;;;;;0.80;0.80;;;18.20;99.90;;;;;;5034762;28;20258;-59
2022/08/27 06:56:48;;;;;;;0.90;0.70;;;18.40;99.90;;;;;;5054440;28;20229;-60
2022/08/27 06:59:16;;;;;;;0.90;0.88;;;18.60;99.90;;;;;;5054391;28;20583;-59
2022/08/27 07:01:44;;;;;;;1.75;0.80;;;18.70;99.90;;;;;;5054257;28;20682;-59
2022/08/27 07:04:15;;;;;;;1.15;0.80;;;18.70;99.90;;;;;;5054385;28;20168;-59
2022/08/27 07:06:41;;;;;;;0.50;0.50;;;18.70;99.90;;;;;;5053370;28;20195;-59
2022/08/27 07:09:08;;;;;;;1.17;0.80;;;18.60;99.90;;;;;;5053826;28;20584;-60
2022/08/27 07:11:35;;;;;;;1.83;0.65;;;18.70;99.90;;;;;;5052996;28;20234;-60
2022/08/27 07:14:01;;;;;;;0.60;0.60;;;18.90;99.90;;;;;;5054177;28;20188;-59
2022/08/27 07:16:28;;;;;;;1.15;0.60;;;18.90;99.90;;;;;;5054332;28;20194;-59
2022/08/27 07:18:56;;;;;;;0.52;0.50;;;19.10;99.90;;;;;;5053038;28;20258;-60
2022/08/27 07:21:22;;;;;;;0.82;0.60;;;19.30;99.90;;;;;;5051746;28;20183;-60
2022/08/27 07:23:51;;;;;;;2.05;0.85;;;19.50;99.90;;;;;;5033737;28;20629;-59
2022/08/27 07:26:18;;;;;;;0.40;0.40;;;19.60;99.90;;;;;;5032387;28;20294;-60
2022/08/27 07:28:45;;;;;;;0.50;0.50;;;19.70;99.90;;;;;;5033783;28;20223;-64
2022/08/27 07:31:15;;;;;;;0.63;0.50;;;19.70;99.90;;;;;;5034228;28;20231;-59
2022/08/27 07:33:42;;;;;;;0.45;0.43;;;19.80;99.90;;;;;;5034210;28;20688;-59
2022/08/27 07:36:08;;;;;;;0.55;0.55;;;20.10;99.90;;;;;;5034065;28;20222;-60
2022/08/27 07:38:35;;;;;;;0.73;0.68;;;20.20;99.90;;;;;;5033728;28;20218;-59
2022/08/27 07:41:05;;;;;;;0.63;0.63;;;20.30;99.90;;;;;;5033625;28;20176;-58
2022/08/27 07:46:15;;;;;;;0.55;0.50;;;20.80;99.90;;;;;;5033752;28;20596;-59
2022/08/27 07:48:41;;;;;;;0.75;0.55;;;21.00;99.90;;;;;;5034060;28;20207;-59
2022/08/27 07:51:16;;;;;;;0.40;0.40;;;20.80;99.90;;;;;;5032602;28;20204;-59
2022/08/27 07:53:42;;;;;;;1.15;0.77;;;20.60;99.90;;;;;;5033676;28;20524;-59
2022/08/27 07:56:08;;;;;;;0.63;0.63;;;20.40;99.90;;;;;;5032741;28;20207;-59
2022/08/27 07:58:34;;;;;;;0.40;0.40;;;20.40;99.90;;;;;;5032599;28;20179;-59
2022/08/27 08:01:00;;;;;;;1.00;0.60;;;20.60;99.90;;;;;;5033845;28;20280;-60
2022/08/27 08:03:26;;;;;;;1.17;0.80;;;20.70;99.90;;;;;;5033593;28;20194;-59
2022/08/27 08:05:53;;;;;;;0.50;0.50;;;21.00;99.90;;;;;;5033506;28;20188;-60
2022/08/27 08:08:23;;;;;;;0.65;0.65;;;21.10;99.90;;;;;;5033385;28;20172;-60
2022/08/27 08:10:49;;;;;;;0.60;0.60;;;21.40;99.90;;;;;;5033560;28;20196;-59
2022/08/27 08:13:17;;;;;;;0.63;0.60;;;21.50;99.90;;;;;;5032401;28;20179;-59
2022/08/27 08:15:45;;;;;;;1.10;1.05;;;21.40;99.90;;;;;;5032361;28;20192;-60
2022/08/27 08:18:10;;;;;;;0.65;0.60;;;21.30;99.90;;;;;;5033376;28;20176;-59
2022/08/27 08:20:36;;;;;;;1.25;0.70;;;21.00;99.90;;;;;;5032012;28;20187;-59
2022/08/27 08:23:02;;;;;;;0.88;0.75;;;20.60;99.90;;;;;;5032258;28;20180;-59
2022/08/27 08:25:29;;;;;;;1.27;0.60;;;20.20;99.90;;;;;;5033342;28;20175;-60
2022/08/27 08:27:54;;;;;;;0.70;0.63;;;20.00;99.90;;;;;;5032041;28;20203;-59
2022/08/27 08:30:22;;;;;;;0.43;0.43;;;19.90;99.90;;;;;;5032204;28;21041;-59
2022/08/27 08:32:48;;;;;;;1.17;0.73;;;19.90;99.90;;;;;;5033309;28;20176;-59
2022/08/27 08:35:14;;;;;;;0.73;0.65;;;20.00;99.90;;;;;;5033221;28;20176;-58
2022/08/27 08:37:44;;;;;;;1.27;0.40;;;19.80;99.90;;;;;;5037683;28;20206;-59
2022/08/27 08:40:29;;;;;;;0.80;0.50;;;19.70;99.90;;;;;;5038661;28;20214;-59
2022/08/27 08:42:55;;;;;;;0.38;0.38;;;19.60;99.90;;;;;;5039843;28;20164;-59
2022/08/27 08:45:26;;;;;;;0.30;0.30;;;19.90;99.90;;;;;;5039614;28;20258;-59
2022/08/27 08:48:10;;;;;;;0.40;0.40;;;19.90;99.90;;;;;;5039491;28;20167;-59
2022/08/27 08:51:09;;;;;;;1.33;0.47;;;19.80;99.90;;;;;;5039760;28;20541;-60
2022/08/27 08:53:43;;;;;;;0.40;0.40;;;19.80;99.90;;;;;;5039681;28;20178;-59
2022/08/27 08:56:20;;;;;;;1.23;0.52;;;19.80;99.90;;;;;;5039140;28;20254;-51
2022/08/27 08:59:04;;;;;;;0.63;0.40;;;20.00;99.90;;;;;;5038923;28;20283;-52
2022/08/27 09:01:29;;;;;;;0.77;0.60;;;20.50;99.90;;;;;;5039768;28;20175;-51
2022/08/27 09:04:09;;;;;;;0.90;0.82;;;21.00;99.90;;;;;;5039620;28;20242;-52
2022/08/27 09:06:47;;;;;;;2.90;1.17;;;21.50;99.90;;;;;;5039497;28;20168;-49
2022/08/27 09:09:26;;;;;;;0.50;0.50;;;21.70;99.90;;;;;;5039727;28;20237;-49
2022/08/27 09:12:02;;;;;;;1.10;0.70;;;21.90;99.90;;;;;;5039557;28;20339;-49
2022/08/27 09:14:43;;;;;;;0.85;0.52;;;22.10;99.90;;;;;;5039551;28;20194;-50
2022/08/27 09:17:09;;;;;;;0.50;0.50;;;22.40;99.90;;;;;;5039337;28;20183;-49
2022/08/27 09:19:34;;;;;;;1.00;0.50;;;22.40;99.00;;;;;;5039573;28;20184;-49
2022/08/27 09:22:31;;;;;;;0.57;0.50;;;22.50;99.60;;;;;;5039509;28;20191;-47
2022/08/27 09:25:13;;;;;;;0.88;0.70;;;22.80;98.70;;;;;;5029998;28;20194;-60
2022/08/27 09:27:41;;;;;;;0.47;0.47;;;22.70;99.00;;;;;;5039139;28;20174;-60
2022/08/27 09:30:11;;;;;;;0.45;0.40;;;22.40;98.90;;;;;;5039373;28;20203;-60
2022/08/27 09:32:38;;;;;;;0.73;0.60;;;22.10;98.90;;;;;;5038037;28;20364;-60
2022/08/27 09:35:07;;;;;;;0.65;0.65;;;21.70;99.30;;;;;;5039182;28;20187;-60
2022/08/27 09:37:44;;;;;;;1.23;0.68;;;21.20;99.90;;;;;;5038973;28;20259;-60
2022/08/27 09:40:25;;;;;;;0.80;0.57;;;21.00;99.90;;;;;;5039162;28;20564;-60
2022/08/27 09:42:54;;;;;;;0.98;0.50;;;20.70;99.90;;;;;;5038138;28;20187;-59
2022/08/27 09:45:26;;;;;;;0.90;0.60;;;20.70;99.90;;;;;;5039260;28;20178;-60
2022/08/27 09:47:54;;;;;;;1.20;0.40;;;20.70;99.90;;;;;;5038274;28;20254;-60
2022/08/27 09:50:23;;;;;;;0.85;0.63;;;20.70;99.90;;;;;;5034949;28;20223;-60
2022/08/27 09:52:54;;;;;;;0.68;0.68;;;20.70;99.90;;;;;;5035811;28;20271;-59
2022/08/27 09:55:45;;;;;;;0.50;0.50;;;20.80;99.90;;;;;;5036067;28;20664;-60
2022/08/27 09:58:22;;;;;;;1.02;0.95;;;21.00;99.90;;;;;;5035427;28;20169;-60
2022/08/27 10:00:57;;;;;;;1.15;0.80;;;21.00;99.90;;;;;;5035814;28;20200;-60
2022/08/27 10:03:23;;;;;;;2.05;0.60;;;21.00;99.90;;;;;;5034891;28;20225;-60
2022/08/27 10:05:50;;;;;;;0.45;0.45;;;21.00;99.90;;;;;;5034789;28;20171;-60
2022/08/27 10:08:53;;;;;;;0.50;0.50;;;21.10;99.90;;;;;;5034615;28;20215;-60
2022/08/27 10:11:34;;;;;;;0.85;0.50;;;21.20;99.90;;;;;;5034312;28;20230;-60
2022/08/27 10:14:10;;;;;;;0.90;0.40;;;21.10;99.90;;;;;;5035766;28;20172;-60
2022/08/27 10:16:52;;;;;;;2.60;0.50;;;21.30;99.90;;;;;;5035589;28;20166;-60
2022/08/27 10:19:50;;;;;;;0.45;0.32;;;21.40;99.90;;;;;;5035455;28;20184;-60
2022/08/27 10:22:30;;;;;;;0.50;0.50;;;21.80;99.90;;;;;;5035640;28;20198;-60
2022/08/27 10:25:22;;;;;;;0.40;0.40;;;22.00;99.50;;;;;;5035469;28;20259;-60
2022/08/27 10:28:12;;;;;;;0.40;0.40;;;22.50;99.50;;;;;;5025214;28;20214;-60
2022/08/27 10:30:56;;;;;;;0.75;0.60;;;22.10;98.90;;;;;;5035223;28;20203;-60
2022/08/27 10:33:37;;;;;;;0.52;0.52;;;21.80;99.50;;;;;;5035292;28;20194;-60
2022/08/27 10:36:15;;;;;;;2.08;0.95;;;21.30;99.70;;;;;;5035164;28;20259;-60
2022/08/27 10:38:51;;;;;;;1.92;0.88;;;21.10;99.90;;;;;;5035330;28;20204;-60
2022/08/27 10:41:27;;;;;;;0.43;0.43;;;21.20;99.90;;;;;;5035115;28;20653;-60
2022/08/27 10:44:21;;;;;;;0.85;0.65;;;21.10;99.90;;;;;;5033943;28;20536;-60
2022/08/27 10:47:34;;;;;;;1.63;0.60;;;20.90;99.90;;;;;;5035175;28;20271;-60
2022/08/27 10:50:03;;;;;;;0.90;0.70;;;20.90;99.90;;;;;;5013001;28;20180;-59
2022/08/27 10:52:36;;;;;;;0.70;0.57;;;20.90;99.90;;;;;;5032437;28;20195;-59
2022/08/27 10:55:12;;;;;;;0.70;0.60;;;20.90;99.90;;;;;;5049798;28;20187;-59
2022/08/27 10:57:56;;;;;;;0.93;0.70;;;20.80;99.90;;;;;;5034769;28;20172;-59
2022/08/27 11:00:23;;;;;;;0.90;0.80;;;20.70;99.90;;;;;;5034416;28;20214;-60
2022/08/27 11:02:55;;;;;;;0.57;0.57;;;20.80;99.90;;;;;;5033501;28;20175;-59
2022/08/27 11:05:43;;;;;;;1.08;0.98;;;20.90;99.90;;;;;;5034530;28;20164;-60
2022/08/27 11:08:21;;;;;;;1.05;0.82;;;20.90;99.90;;;;;;5034566;28;20214;-59
2022/08/27 11:11:04;;;;;;;0.90;0.80;;;21.00;99.90;;;;;;5034570;28;20667;-59
2022/08/27 11:13:42;;;;;;;1.45;0.90;;;21.00;99.90;;;;;;5033756;28;20168;-59
2022/08/27 11:16:33;;;;;;;2.05;1.15;;;21.00;99.90;;;;;;5034789;28;20176;-59
2022/08/27 11:19:09;;;;;;;0.85;0.85;;;21.20;99.90;;;;;;5034498;28;20251;-59
2022/08/27 11:21:45;;;;;;;1.10;0.70;;;21.20;99.90;;;;;;5034419;28;20237;-59
2022/08/27 11:25:00;;;;;;;1.00;0.90;;;21.40;99.50;;;;;;5034269;28;20257;-60
2022/08/27 11:27:30;;;;;;;0.75;0.73;;;21.50;99.80;;;;;;5029263;28;20260;-60
2022/08/27 11:30:15;;;;;;;0.70;0.70;;;21.60;99.90;;;;;;5033945;28;20199;-48
2022/08/27 11:32:53;;;;;;;0.60;0.60;;;21.60;99.20;;;;;;5034064;28;20211;-58
2022/08/27 11:35:28;;;;;;;0.95;0.68;;;21.80;99.20;;;;;;5032891;28;20699;-57
2022/08/27 11:38:12;;;;;;;0.80;0.70;;;21.80;98.50;;;;;;5034218;28;20530;-58
2022/08/27 11:40:48;;;;;;;1.00;0.73;;;21.80;98.40;;;;;;5033945;28;20529;-57
2022/08/27 11:43:17;;;;;;;0.88;0.60;;;21.80;98.70;;;;;;5034160;28;20171;-57
2022/08/27 11:46:20;;;;;;;0.70;0.60;;;22.00;98.40;;;;;;5033816;28;20187;-57
2022/08/27 11:48:59;;;;;;;2.85;0.88;;;22.00;97.90;;;;;;5030217;28;20195;-57
2022/08/27 11:51:36;;;;;;;0.77;0.70;;;22.10;98.30;;;;;;5033969;28;20209;-58
2022/08/27 11:54:08;;;;;;;1.45;0.80;;;22.20;98.20;;;;;;5033949;28;20214;-58
2022/08/27 11:56:42;;;;;;;0.70;0.60;;;22.30;98.00;;;;;;5033766;28;20167;-57
2022/08/27 11:59:31;;;;;;;0.65;0.65;;;22.10;97.40;;;;;;5034034;28;20179;-57
2022/08/27 12:02:20;;;;;;;1.02;0.93;;;22.40;97.70;;;;;;5032562;28;20180;-57
2022/08/27 12:04:46;;;;;;;2.45;1.08;;;22.40;96.70;;;;;;5033552;28;20179;-57
2022/08/27 12:07:17;;;;;;;1.00;0.65;;;22.40;96.40;;;;;;5015929;28;20171;-57
2022/08/27 12:09:55;;;;;;;1.48;0.95;;;22.40;97.50;;;;;;5033492;28;20208;-59
2022/08/27 12:12:31;;;;;;;0.50;0.50;;;22.60;97.00;;;;;;5032687;28;20200;-57
2022/08/27 12:15:07;;;;;;;1.30;0.57;;;22.50;96.40;;;;;;5033634;28;20179;-57
2022/08/27 12:17:50;;;;;;;0.75;0.60;;;22.60;96.40;;;;;;5033557;28;20168;-56
2022/08/27 12:20:25;;;;;;;0.75;0.70;;;22.80;96.90;;;;;;5033305;28;20168;-57
2022/08/27 12:26:14;;;;;;;0.75;0.50;;;22.80;96.50;;;;;;5033568;28;20238;-57
2022/08/27 12:28:40;;;;;;;0.75;0.75;;;22.80;96.60;;;;;;5031843;28;20195;-57
2022/08/27 12:31:06;;;;;;;0.68;0.60;;;22.80;96.10;;;;;;5033351;28;20215;-58
2022/08/27 12:33:38;;;;;;;0.80;0.80;;;22.70;96.00;;;;;;5033360;28;20177;-57
2022/08/27 12:36:19;;;;;;;2.53;0.70;;;22.90;96.70;;;;;;5033188;28;20164;-57
2022/08/27 12:38:49;;;;;;;0.65;0.63;;;22.80;96.30;;;;;;5033161;28;20264;-57
2022/08/27 12:41:26;;;;;;;2.10;0.80;;;22.80;96.70;;;;;;5033036;28;20183;-57
2022/08/27 12:44:02;;;;;;;1.27;1.00;;;22.80;97.00;;;;;;5033222;28;20175;-57
2022/08/27 12:46:28;;;;;;;1.20;1.05;;;23.00;96.70;;;;;;5033409;28;20221;-57
2022/08/27 12:49:00;;;;;;;1.27;0.77;;;23.00;96.40;;;;;;5033118;28;20562;-56
2022/08/27 12:51:30;;;;;;;1.20;0.80;;;23.10;96.30;;;;;;5032887;28;20282;-56
2022/08/27 12:54:07;;;;;;;1.45;0.88;;;23.20;96.40;;;;;;5033262;28;20176;-56
2022/08/27 12:56:51;;;;;;;0.60;0.60;;;23.10;96.20;;;;;;5032998;28;20251;-57
2022/08/27 12:59:54;;;;;;;0.88;0.65;;;23.00;96.30;;;;;;5032911;28;20172;-56
2022/08/27 13:02:57;;;;;;;1.75;1.10;;;23.20;96.30;;;;;;5033097;28;20211;-56
2022/08/27 13:05:24;;;;;;;1.92;0.90;;;23.10;96.10;;;;;;5032898;28;20171;-58
2022/08/27 13:07:51;;;;;;;0.77;0.75;;;23.10;96.70;;;;;;5032851;28;20190;-57
2022/08/27 13:10:27;;;;;;;2.65;0.80;;;23.20;97.00;;;;;;5032651;28;20708;-56
2022/08/27 13:13:13;;;;;;;1.40;0.88;;;23.40;96.20;;;;;;5033145;28;20529;-57
2022/08/27 13:15:45;;;;;;;1.90;1.00;;;23.50;96.10;;;;;;5033241;28;20522;-57